Terminal Aerodrome Forecast
Issued by NWS Wilmington, NC

Home | Current Version | Previous Version | Text Only | Print | Product List | Glossary On
Versions: 1 2 3 4 5 6 7 8 9 10 11 12 13 14 15 16 17 18 19
000
FTUS42 KILM 191700
TAFLBT
TAF
KLBT 191735Z 1918/2018 08010G16KT P6SM SCT030 BKN150
     FM200000 06006KT P6SM SCT040
     FM201400 05010KT P6SM SCT040 BKN100=

USA.gov is the U.S. government's official web portal to all federal, state and local government web resources and services.